createdAt,value
2022-10-25T00:00:39.968Z,8.13
2022-10-25T00:03:11.420Z,7.25
2022-10-25T00:05:39.465Z,7.18
2022-10-25T00:08:06.530Z,6.68
2022-10-25T00:10:34.902Z,6.82
2022-10-25T00:13:01.947Z,6.85
2022-10-25T00:15:28.708Z,6.15
2022-10-25T00:17:55.357Z,6.43
2022-10-25T00:20:22.166Z,6.18
2022-10-25T00:22:48.976Z,6.38
2022-10-25T00:25:16.087Z,6.28
2022-10-25T00:27:42.955Z,6.15
2022-10-25T00:30:10.437Z,6.50
2022-10-25T00:32:37.167Z,6.13
2022-10-25T00:35:03.978Z,6.57
2022-10-25T00:37:30.710Z,6.97
2022-10-25T00:39:57.367Z,7.13
2022-10-25T00:42:26.528Z,6.63
2022-10-25T00:44:57.540Z,6.28
2022-10-25T00:47:38.212Z,7.03
2022-10-25T00:50:28.988Z,6.40
2022-10-25T00:52:59.537Z,7.00
2022-10-25T00:55:28.968Z,6.70
2022-10-25T00:58:08.554Z,6.75
2022-10-25T01:00:36.235Z,6.70
2022-10-25T01:03:03.906Z,6.47
2022-10-25T01:05:30.749Z,6.28
2022-10-25T01:07:57.974Z,6.15
2022-10-25T01:10:26.349Z,6.43
2022-10-25T01:12:53.761Z,6.30
2022-10-25T01:15:25.071Z,6.93
2022-10-25T01:18:28.837Z,6.15
2022-10-25T01:21:30.977Z,6.38
2022-10-25T01:24:13.955Z,6.85
2022-10-25T01:27:08.444Z,6.25
2022-10-25T01:29:56.562Z,6.47
2022-10-25T01:32:46.835Z,6.60
2022-10-25T01:35:22.908Z,6.30
2022-10-25T01:38:20.456Z,5.93
2022-10-25T01:41:03.891Z,5.75
2022-10-25T01:43:44.346Z,5.10
2022-10-25T01:46:42.129Z,5.32
2022-10-25T01:49:14.747Z,5.78
2022-10-25T01:51:41.334Z,5.85
2022-10-25T01:54:19.147Z,5.93
2022-10-25T01:56:56.326Z,5.75
2022-10-25T02:00:09.523Z,6.22
2022-10-25T02:03:01.480Z,6.25
2022-10-25T02:05:46.730Z,6.05
2022-10-25T02:08:31.930Z,5.97
2022-10-25T02:11:09.740Z,6.22
2022-10-25T02:14:04.153Z,6.13
2022-10-25T02:16:40.178Z,5.57
2022-10-25T02:21:36.933Z,5.57
2022-10-25T02:24:09.613Z,5.55
2022-10-25T02:26:37.108Z,5.60
2022-10-25T02:29:05.245Z,6.20
2022-10-25T02:31:35.581Z,5.90
2022-10-25T02:34:04.808Z,5.82
2022-10-25T02:36:31.453Z,5.60
2022-10-25T02:38:59.641Z,5.25
2022-10-25T02:41:26.501Z,5.90
2022-10-25T02:43:53.255Z,5.70
2022-10-25T02:46:22.015Z,5.63
2022-10-25T02:48:49.208Z,5.65
2022-10-25T02:51:17.298Z,5.80
2022-10-25T02:53:44.550Z,5.75
2022-10-25T02:56:13.974Z,5.55
2022-10-25T02:58:42.550Z,5.88
2022-10-25T03:01:10.136Z,5.63
2022-10-25T03:03:36.859Z,5.63
2022-10-25T03:06:04.104Z,5.18
2022-10-25T03:08:31.232Z,5.85
2022-10-25T03:10:58.908Z,5.35
2022-10-25T03:13:25.667Z,5.25
2022-10-25T03:15:52.283Z,5.47
2022-10-25T03:18:18.882Z,5.28
2022-10-25T03:20:45.713Z,5.07
2022-10-25T03:23:12.992Z,5.35
2022-10-25T03:25:40.097Z,4.95
2022-10-25T03:28:07.532Z,5.60
2022-10-25T03:30:34.773Z,5.20
2022-10-25T03:33:01.426Z,5.38
2022-10-25T03:35:28.259Z,5.28
2022-10-25T03:37:55.274Z,5.22
2022-10-25T03:40:22.387Z,5.28
2022-10-25T03:42:48.970Z,5.50
2022-10-25T03:45:15.545Z,5.80
2022-10-25T03:47:42.182Z,5.63
2022-10-25T03:50:09.533Z,5.88
2022-10-25T03:52:36.357Z,5.50
2022-10-25T03:55:03.151Z,5.50
2022-10-25T03:57:30.020Z,5.85
2022-10-25T03:59:58.171Z,5.88
2022-10-25T04:02:24.794Z,5.70
2022-10-25T04:04:51.423Z,5.97
2022-10-25T04:07:18.672Z,5.78
2022-10-25T04:09:45.499Z,6.20
2022-10-25T04:12:12.266Z,6.20
2022-10-25T04:14:38.850Z,6.30
2022-10-25T04:17:05.496Z,6.38
2022-10-25T04:19:32.155Z,6.53
2022-10-25T04:21:58.819Z,6.25
2022-10-25T04:24:25.469Z,6.57
2022-10-25T04:26:52.039Z,6.45
2022-10-25T04:29:18.630Z,6.38
2022-10-25T04:31:46.302Z,6.85
2022-10-25T04:34:12.958Z,6.82
2022-10-25T04:36:39.615Z,6.78
2022-10-25T04:39:06.267Z,7.00
2022-10-25T04:41:33.031Z,6.75
2022-10-25T04:43:59.633Z,6.50
2022-10-25T04:46:26.299Z,6.43
2022-10-25T04:48:53.122Z,6.15
2022-10-25T04:51:19.696Z,6.28
2022-10-25T04:53:46.253Z,6.53
2022-10-25T04:56:17.031Z,6.57
2022-10-25T04:58:43.628Z,7.28
2022-10-25T05:01:12.999Z,6.47
2022-10-25T05:03:40.543Z,6.25
2022-10-25T05:06:09.943Z,6.53
2022-10-25T05:08:40.128Z,6.70
2022-10-25T05:11:07.653Z,6.53
2022-10-25T05:13:36.256Z,7.05
2022-10-25T05:16:03.375Z,6.90
2022-10-25T05:18:33.873Z,7.10
2022-10-25T05:21:04.331Z,6.78
2022-10-25T05:23:33.040Z,6.68
2022-10-25T05:26:14.880Z,7.60
2022-10-25T05:28:43.383Z,7.00
2022-10-25T05:31:14.656Z,6.97
2022-10-25T05:33:42.009Z,6.85
2022-10-25T05:36:08.640Z,7.35
2022-10-25T05:38:37.739Z,7.00
2022-10-25T05:41:05.121Z,7.20
2022-10-25T05:43:31.888Z,7.30
2022-10-25T05:46:22.902Z,7.50
2022-10-25T05:48:51.312Z,6.95
2022-10-25T05:51:36.548Z,7.15
2022-10-25T05:54:10.492Z,6.57
2022-10-25T05:56:38.262Z,6.93
2022-10-25T05:59:11.491Z,7.53
2022-10-25T06:01:40.782Z,6.68
2022-10-25T06:04:08.501Z,6.82
2022-10-25T06:06:38.768Z,7.00
2022-10-25T06:09:06.539Z,8.00
2022-10-25T06:11:36.460Z,6.60
2022-10-25T06:14:04.993Z,6.90
2022-10-25T06:16:31.886Z,7.20
2022-10-25T06:18:58.480Z,6.55
2022-10-25T06:21:27.715Z,7.68
2022-10-25T06:23:55.512Z,6.60
2022-10-25T06:26:24.900Z,6.65
2022-10-25T06:28:54.357Z,6.85
2022-10-25T06:31:20.990Z,6.07
2022-10-25T06:33:48.135Z,6.10
2022-10-25T06:36:17.054Z,6.28
2022-10-25T06:38:44.842Z,5.88
2022-10-25T06:41:31.551Z,6.25
2022-10-25T06:44:03.806Z,6.00
2022-10-25T06:46:40.527Z,5.65
2022-10-25T06:49:19.132Z,6.30
2022-10-25T06:51:45.705Z,5.70
2022-10-25T06:54:12.310Z,5.60
2022-10-25T06:56:38.933Z,5.40
2022-10-25T06:59:07.367Z,5.07
2022-10-25T07:01:34.341Z,5.57
2022-10-25T07:04:02.938Z,5.20
2022-10-25T07:06:35.719Z,5.00
2022-10-25T07:09:04.161Z,5.07
2022-10-25T07:11:32.777Z,4.63
2022-10-25T07:14:00.684Z,4.97
2022-10-25T07:16:27.987Z,4.93
2022-10-25T07:19:02.890Z,4.80
2022-10-25T07:21:31.202Z,4.53
2022-10-25T07:23:57.865Z,5.25
2022-10-25T07:26:27.151Z,4.65
2022-10-25T07:28:56.926Z,4.80
2022-10-25T07:31:26.458Z,4.55
2022-10-25T07:33:54.722Z,5.05
2022-10-25T07:36:21.275Z,5.05
2022-10-25T07:38:47.913Z,4.70
2022-10-25T07:41:14.772Z,4.63
2022-10-25T07:43:41.592Z,4.32
2022-10-25T07:46:08.643Z,4.78
2022-10-25T07:48:35.659Z,4.75
2022-10-25T07:51:07.746Z,4.50
2022-10-25T07:53:35.113Z,4.55
2022-10-25T07:56:01.773Z,4.68
2022-10-25T07:58:28.354Z,4.97
2022-10-25T08:01:02.437Z,4.90
2022-10-25T08:03:29.217Z,4.75
2022-10-25T08:05:55.900Z,4.50
2022-10-25T08:08:23.421Z,4.35
2022-10-25T08:10:50.353Z,4.85
2022-10-25T08:13:17.214Z,4.43
2022-10-25T08:15:54.328Z,4.40
2022-10-25T08:18:21.645Z,4.20
2022-10-25T08:21:04.245Z,3.75
2022-10-25T08:23:32.759Z,4.40
2022-10-25T08:26:00.647Z,4.35
2022-10-25T08:28:27.450Z,4.15
2022-10-25T08:30:55.832Z,3.97
2022-10-25T08:33:23.297Z,3.70
2022-10-25T08:35:50.142Z,3.50
2022-10-25T08:38:16.837Z,3.13
2022-10-25T08:40:49.334Z,3.80
2022-10-25T08:43:31.513Z,3.72
2022-10-25T08:46:07.382Z,3.25
2022-10-25T08:48:39.001Z,3.45
2022-10-25T08:51:14.735Z,3.13
2022-10-25T08:56:18.616Z,3.58
2022-10-25T08:58:55.499Z,3.78
2022-10-25T09:01:49.548Z,3.65
2022-10-25T09:04:16.322Z,3.20
2022-10-25T09:06:55.140Z,3.05
2022-10-25T09:09:30.686Z,3.20
2022-10-25T09:12:19.321Z,3.30
2022-10-25T09:14:48.863Z,3.05
2022-10-25T09:17:22.797Z,2.97
2022-10-25T09:20:04.677Z,2.95
2022-10-25T09:22:55.930Z,3.67
2022-10-25T09:25:55.731Z,2.85
2022-10-25T09:28:38.783Z,3.10
2022-10-25T09:31:10.558Z,2.90
2022-10-25T09:33:40.386Z,2.72
2022-10-25T09:36:08.914Z,2.80
2022-10-25T09:38:49.261Z,2.90
2022-10-25T09:41:38.732Z,2.92
2022-10-25T09:44:20.068Z,3.13
2022-10-25T09:47:19.279Z,3.00
2022-10-25T09:49:48.814Z,2.78
2022-10-25T09:52:24.562Z,3.08
2022-10-25T09:55:12.347Z,2.70
2022-10-25T09:57:38.989Z,2.70
2022-10-25T10:00:06.286Z,2.72
2022-10-25T10:02:33.324Z,2.72
2022-10-25T10:05:00.010Z,2.80
2022-10-25T10:07:35.905Z,3.17
2022-10-25T10:10:09.916Z,2.60
2022-10-25T10:13:15.775Z,2.80
2022-10-25T10:15:53.446Z,3.30
2022-10-25T10:18:23.946Z,2.25
2022-10-25T10:21:07.216Z,2.78
2022-10-25T10:23:57.429Z,2.40
2022-10-25T10:26:37.206Z,2.70
2022-10-25T10:29:15.403Z,2.90
2022-10-25T10:31:47.864Z,2.50
2022-10-25T10:34:31.020Z,3.40
2022-10-25T10:37:17.588Z,2.97
2022-10-25T10:39:58.059Z,2.90
2022-10-25T10:45:20.322Z,2.60
2022-10-25T10:47:49.666Z,2.55
2022-10-25T10:50:22.510Z,2.85
2022-10-25T10:53:17.907Z,2.65
2022-10-25T10:55:53.862Z,2.75
2022-10-25T10:58:28.310Z,2.95
2022-10-25T11:01:00.380Z,2.67
2022-10-25T11:03:48.967Z,2.80
2022-10-25T11:06:30.280Z,3.45
2022-10-25T11:09:19.518Z,3.13
2022-10-25T11:12:06.121Z,2.78
2022-10-25T11:14:33.401Z,2.90
2022-10-25T11:17:16.951Z,3.00
2022-10-25T11:19:43.508Z,3.13
2022-10-25T11:22:26.028Z,2.70
2022-10-25T11:25:21.512Z,2.78
2022-10-25T11:27:57.155Z,3.05
2022-10-25T11:30:28.348Z,2.78
2022-10-25T11:33:12.915Z,3.00
2022-10-25T11:35:59.346Z,2.70
2022-10-25T11:38:40.837Z,2.53
2022-10-25T11:41:47.711Z,2.80
2022-10-25T11:44:35.047Z,2.80
2022-10-25T11:47:42.376Z,2.28
2022-10-25T11:50:41.525Z,2.80
2022-10-25T11:53:25.878Z,2.70
2022-10-25T11:55:57.520Z,2.90
2022-10-25T11:58:39.154Z,2.92
2022-10-25T12:01:43.124Z,2.92
2022-10-25T12:04:32.777Z,2.72
2022-10-25T12:07:13.841Z,2.72
2022-10-25T12:09:52.087Z,2.88
2022-10-25T12:12:23.997Z,3.50
2022-10-25T12:14:56.385Z,2.88
2022-10-25T12:17:29.571Z,3.00
2022-10-25T12:20:03.184Z,2.72
2022-10-25T12:22:50.261Z,2.53
2022-10-25T12:25:40.235Z,2.85
2022-10-25T12:28:32.402Z,3.00
2022-10-25T12:31:21.584Z,3.33
2022-10-25T12:34:01.326Z,3.08
2022-10-25T12:36:40.230Z,2.90
2022-10-25T12:39:38.727Z,2.85
2022-10-25T12:42:18.781Z,2.47
2022-10-25T12:45:01.219Z,2.70
2022-10-25T12:47:36.814Z,2.67
2022-10-25T12:50:24.217Z,2.70
2022-10-25T12:53:27.841Z,2.95
2022-10-25T12:56:32.158Z,2.92
2022-10-25T12:59:22.891Z,3.40
2022-10-25T13:02:10.287Z,2.85
2022-10-25T13:04:52.416Z,3.00
2022-10-25T13:07:22.005Z,2.80
2022-10-25T13:09:49.684Z,3.17
2022-10-25T13:12:16.262Z,3.13
2022-10-25T13:14:50.721Z,3.08
2022-10-25T13:17:18.276Z,3.00
2022-10-25T13:19:55.906Z,2.97
2022-10-25T13:22:49.513Z,3.08
2022-10-25T13:25:37.737Z,3.45
2022-10-25T13:28:16.289Z,3.25
2022-10-25T13:30:44.295Z,3.10
2022-10-25T13:33:22.609Z,3.15
2022-10-25T13:35:49.158Z,3.03
2022-10-25T13:38:23.158Z,3.35
2022-10-25T13:41:06.164Z,3.10
2022-10-25T13:43:33.072Z,2.95
2022-10-25T13:45:59.899Z,3.38
2022-10-25T13:48:30.554Z,3.08
2022-10-25T13:51:00.116Z,3.20
2022-10-25T13:53:41.094Z,2.80
2022-10-25T13:56:16.632Z,2.65
2022-10-25T13:58:51.250Z,3.30
2022-10-25T14:01:18.261Z,3.10
2022-10-25T14:03:53.388Z,3.20
2022-10-25T14:06:43.362Z,3.10
2022-10-25T14:09:31.063Z,3.10
2022-10-25T14:12:20.432Z,3.78
2022-10-25T14:15:12.361Z,3.17
2022-10-25T14:17:44.057Z,2.90
2022-10-25T14:20:25.702Z,3.25
2022-10-25T14:23:07.905Z,2.97
2022-10-25T14:25:40.377Z,2.95
2022-10-25T14:28:12.506Z,3.15
2022-10-25T14:30:43.444Z,3.30
2022-10-25T14:33:28.685Z,3.30
2022-10-25T14:36:11.059Z,3.20
2022-10-25T14:38:52.195Z,3.00
2022-10-25T14:41:24.422Z,3.10
2022-10-25T14:43:51.353Z,3.50
2022-10-25T14:46:25.972Z,3.13
2022-10-25T14:49:00.791Z,3.80
2022-10-25T14:51:36.943Z,3.03
2022-10-25T14:54:06.020Z,3.20
2022-10-25T14:56:49.651Z,3.22
2022-10-25T14:59:29.477Z,3.17
2022-10-25T15:02:02.700Z,3.17
2022-10-25T15:04:35.544Z,3.45
2022-10-25T15:07:03.101Z,3.15
2022-10-25T15:09:42.193Z,3.17
2022-10-25T15:12:11.838Z,3.00
2022-10-25T15:14:38.652Z,3.17
2022-10-25T15:17:14.847Z,3.20
2022-10-25T15:20:01.028Z,3.10
2022-10-25T15:22:38.822Z,2.97
2022-10-25T15:25:23.611Z,3.40
2022-10-25T15:27:51.862Z,3.38
2022-10-25T15:30:38.402Z,3.40
2022-10-25T15:33:11.238Z,3.78
2022-10-25T15:35:55.627Z,3.47
2022-10-25T15:38:27.148Z,3.58
2022-10-25T15:41:03.630Z,3.30
2022-10-25T15:43:30.235Z,3.28
2022-10-25T15:45:56.818Z,3.30
2022-10-25T15:48:31.017Z,3.95
2022-10-25T15:50:58.657Z,3.80
2022-10-25T15:53:25.779Z,4.22
2022-10-25T15:55:52.755Z,4.40
2022-10-25T15:58:19.367Z,3.70
2022-10-25T16:00:46.340Z,3.67
2022-10-25T16:03:21.053Z,3.75
2022-10-25T16:05:49.518Z,4.10
2022-10-25T16:08:16.523Z,4.15
2022-10-25T16:10:43.957Z,3.58
2022-10-25T16:13:16.462Z,3.63
2022-10-25T16:15:43.338Z,3.88
2022-10-25T16:18:11.539Z,3.60
2022-10-25T16:20:40.412Z,3.72
2022-10-25T16:23:07.043Z,3.85
2022-10-25T16:25:33.918Z,3.80
2022-10-25T16:28:01.622Z,4.25
2022-10-25T16:30:34.090Z,4.28
2022-10-25T16:33:00.845Z,3.85
2022-10-25T16:35:27.572Z,4.30
2022-10-25T16:37:54.171Z,5.50
2022-10-25T16:40:22.240Z,4.47
2022-10-25T16:42:49.702Z,4.35
2022-10-25T16:45:22.724Z,3.75
2022-10-25T16:47:49.597Z,4.10
2022-10-25T16:50:23.090Z,4.10
2022-10-25T16:52:55.191Z,3.85
2022-10-25T16:55:21.864Z,4.85
2022-10-25T17:00:36.204Z,3.90
2022-10-25T17:03:03.713Z,3.95
2022-10-25T17:05:33.108Z,4.22
2022-10-25T17:07:59.761Z,4.07
2022-10-25T17:10:26.903Z,4.03
2022-10-25T17:13:01.623Z,3.90
2022-10-25T17:15:28.375Z,4.13
2022-10-25T17:17:54.990Z,4.50
2022-10-25T17:20:21.636Z,4.05
2022-10-25T17:22:48.942Z,4.32
2022-10-25T17:25:16.057Z,4.10
2022-10-25T17:27:47.944Z,3.95
2022-10-25T17:30:16.552Z,4.10
2022-10-25T17:32:43.142Z,4.05
2022-10-25T17:35:09.835Z,5.00
2022-10-25T17:37:36.446Z,4.30
2022-10-25T17:40:03.114Z,4.30
2022-10-25T17:42:29.752Z,4.55
2022-10-25T17:44:56.549Z,5.15
2022-10-25T17:47:23.226Z,4.78
2022-10-25T17:49:49.868Z,4.00
2022-10-25T17:52:16.470Z,5.07
2022-10-25T17:54:43.392Z,4.60
2022-10-25T17:57:10.071Z,4.70
2022-10-25T17:59:36.692Z,4.63
2022-10-25T18:02:03.603Z,5.25
2022-10-25T18:04:41.766Z,5.20
2022-10-25T18:07:15.442Z,5.03
2022-10-25T18:09:42.063Z,5.47
2022-10-25T18:12:09.697Z,5.38
2022-10-25T18:14:36.675Z,5.40
2022-10-25T18:17:03.573Z,5.32
2022-10-25T18:19:30.419Z,5.10
2022-10-25T18:22:00.516Z,5.10
2022-10-25T18:24:29.246Z,5.80
2022-10-25T18:26:56.355Z,5.35
2022-10-25T18:29:23.533Z,5.50
2022-10-25T18:31:50.260Z,5.70
2022-10-25T18:34:17.089Z,5.13
2022-10-25T18:36:44.752Z,5.82
2022-10-25T18:39:11.733Z,5.32
2022-10-25T18:41:40.986Z,5.60
2022-10-25T18:44:14.134Z,5.30
2022-10-25T18:46:42.090Z,5.63
2022-10-25T18:49:12.873Z,5.53
2022-10-25T18:51:41.243Z,5.45
2022-10-25T18:54:12.889Z,5.20
2022-10-25T18:56:39.542Z,5.20
2022-10-25T18:59:10.156Z,4.93
2022-10-25T19:01:37.831Z,4.80
2022-10-25T19:04:05.000Z,5.30
2022-10-25T19:06:32.640Z,5.15
2022-10-25T19:08:59.358Z,5.15
2022-10-25T19:11:26.146Z,5.10
2022-10-25T19:13:54.823Z,5.07
2022-10-25T19:16:22.618Z,4.78
2022-10-25T19:18:49.417Z,4.70
2022-10-25T19:21:18.446Z,5.60
2022-10-25T19:23:46.581Z,5.70
2022-10-25T19:26:23.677Z,6.53
2022-10-25T19:28:56.655Z,6.57
2022-10-25T19:31:24.807Z,7.35
2022-10-25T19:33:53.052Z,7.95
2022-10-25T19:36:20.686Z,8.07
2022-10-25T19:38:50.595Z,8.05
2022-10-25T19:41:20.711Z,8.43
2022-10-25T19:43:47.652Z,7.18
2022-10-25T19:46:15.351Z,5.85
2022-10-25T19:48:42.401Z,6.47
2022-10-25T19:51:15.435Z,7.00
2022-10-25T19:53:42.514Z,5.95
2022-10-25T19:56:11.141Z,5.82
2022-10-25T19:58:37.734Z,6.18
2022-10-25T20:01:08.380Z,5.72
2022-10-25T20:03:36.169Z,6.15
2022-10-25T20:06:06.505Z,6.70
2022-10-25T20:08:34.681Z,5.97
2022-10-25T20:11:03.754Z,6.35
2022-10-25T20:13:30.572Z,6.85
2022-10-25T20:15:57.519Z,6.70
2022-10-25T20:18:26.431Z,6.97
2022-10-25T20:20:58.717Z,5.88
2022-10-25T20:23:25.425Z,6.13
2022-10-25T20:25:51.994Z,6.45
2022-10-25T20:28:21.444Z,5.90
2022-10-25T20:30:48.228Z,6.43
2022-10-25T20:33:15.672Z,6.20
2022-10-25T20:35:44.537Z,6.35
2022-10-25T20:38:13.567Z,6.30
2022-10-25T20:40:40.644Z,6.22
2022-10-25T20:43:08.059Z,5.63
2022-10-25T20:45:34.868Z,5.47
2022-10-25T20:48:01.763Z,5.05
2022-10-25T20:50:29.976Z,5.57
2022-10-25T20:53:12.345Z,5.97
2022-10-25T20:55:39.079Z,5.63
2022-10-25T20:58:06.002Z,6.75
2022-10-25T21:00:33.029Z,6.80
2022-10-25T21:03:00.028Z,6.43
2022-10-25T21:05:26.854Z,7.05
2022-10-25T21:07:53.434Z,7.10
2022-10-25T21:10:20.256Z,6.90
2022-10-25T21:12:46.839Z,7.35
2022-10-25T21:15:13.520Z,6.72
2022-10-25T21:17:40.137Z,7.93
2022-10-25T21:20:07.511Z,7.80
2022-10-25T21:22:34.189Z,8.30
2022-10-25T21:25:00.782Z,8.80
2022-10-25T21:27:27.434Z,10.00
2022-10-25T21:29:54.151Z,9.75
2022-10-25T21:32:20.774Z,8.93
2022-10-25T21:34:47.420Z,9.15
2022-10-25T21:37:14.243Z,10.45
2022-10-25T21:39:42.334Z,9.70
2022-10-25T21:42:12.295Z,10.85
2022-10-25T21:44:38.916Z,11.77
2022-10-25T21:47:05.807Z,10.80
2022-10-25T21:49:32.888Z,11.00
2022-10-25T21:51:59.627Z,10.50
2022-10-25T21:54:26.285Z,11.50
2022-10-25T21:56:53.071Z,11.52
2022-10-25T21:59:23.222Z,11.52
2022-10-25T22:01:50.291Z,11.15
2022-10-25T22:04:17.125Z,11.63
2022-10-25T22:06:43.821Z,12.27
2022-10-25T22:09:11.305Z,11.68
2022-10-25T22:11:38.677Z,12.15
2022-10-25T22:14:08.402Z,12.65
2022-10-25T22:16:35.381Z,11.77
2022-10-25T22:19:05.587Z,12.77
2022-10-25T22:21:35.611Z,12.80
2022-10-25T22:24:03.584Z,12.90
2022-10-25T22:26:30.507Z,11.38
2022-10-25T22:28:59.418Z,12.70
2022-10-25T22:31:28.287Z,11.38
2022-10-25T22:33:57.226Z,12.02
2022-10-25T22:36:27.247Z,11.88
2022-10-25T22:38:54.396Z,11.55
2022-10-25T22:41:23.797Z,12.98
2022-10-25T22:43:51.872Z,12.18
2022-10-25T22:46:25.199Z,13.63
2022-10-25T22:48:53.838Z,11.23
2022-10-25T22:51:21.903Z,12.82
2022-10-25T22:53:48.830Z,11.60
2022-10-25T22:56:23.377Z,12.55
2022-10-25T22:58:52.687Z,10.65
2022-10-25T23:01:30.730Z,11.93
2022-10-25T23:03:58.778Z,11.93
2022-10-25T23:06:31.194Z,12.52
2022-10-25T23:09:00.347Z,10.18
2022-10-25T23:11:29.423Z,9.52
2022-10-25T23:14:01.961Z,9.63
2022-10-25T23:16:29.296Z,14.60
2022-10-25T23:18:56.608Z,12.65
2022-10-25T23:21:25.662Z,12.20
2022-10-25T23:23:53.781Z,9.95
2022-10-25T23:26:29.317Z,13.10
2022-10-25T23:28:56.254Z,12.93
2022-10-25T23:31:23.673Z,12.30
2022-10-25T23:33:52.506Z,11.75
2022-10-25T23:36:21.367Z,12.15
2022-10-25T23:38:49.610Z,10.60
2022-10-25T23:41:17.223Z,11.15
2022-10-25T23:43:44.074Z,11.32
2022-10-25T23:46:12.586Z,11.68
2022-10-25T23:48:39.709Z,15.00
2022-10-25T23:51:09.136Z,15.43
2022-10-25T23:53:37.083Z,11.27
2022-10-25T23:56:06.313Z,10.70
2022-10-25T23:58:33.155Z,10.75
